Time;durP1;ratioP1;P1;durP2;ratioP2;P2;SDS_P1;SDS_P2;PMS_P1;PMS_P2;Temp;Humidity;BMP_temperature;BMP_pressure;BME280_temperature;BME280_humidity;BME280_pressure;Samples;Min_cycle;Max_cycle;Signal;HPM_P1;HPM_P2
2023/08/22 00:00:31;;;;;;;15.77;9.88;;;16.00;99.90;;;;;;5052082;28;20057;-73
2023/08/22 00:02:58;;;;;;;16.75;9.93;;;16.00;99.90;;;;;;5053522;28;20080;-73
2023/08/22 00:05:24;;;;;;;17.08;10.18;;;16.10;99.90;;;;;;5052431;28;20110;-72
2023/08/22 00:07:50;;;;;;;19.10;10.32;;;16.10;99.90;;;;;;5051997;28;20447;-73
2023/08/22 00:10:16;;;;;;;19.30;11.45;;;16.10;99.90;;;;;;5053241;28;20049;-72
2023/08/22 00:12:42;;;;;;;17.08;9.98;;;16.20;99.90;;;;;;5053313;28;20120;-72
2023/08/22 00:15:09;;;;;;;14.25;8.48;;;16.20;99.90;;;;;;5051850;28;20485;-72
2023/08/22 00:17:36;;;;;;;13.88;8.85;;;16.10;99.90;;;;;;5051943;28;20481;-72
2023/08/22 00:20:04;;;;;;;12.57;8.57;;;16.20;99.90;;;;;;5051878;28;20049;-72
2023/08/22 00:22:30;;;;;;;13.30;9.25;;;16.10;99.90;;;;;;5051782;28;20060;-72
2023/08/22 00:24:56;;;;;;;13.95;8.85;;;16.10;99.90;;;;;;5051169;28;20057;-72
2023/08/22 00:27:21;;;;;;;15.05;9.02;;;16.10;99.90;;;;;;5051765;28;20127;-72
2023/08/22 00:29:48;;;;;;;14.05;9.63;;;16.00;99.90;;;;;;5052857;28;20053;-72
2023/08/22 00:32:13;;;;;;;17.05;9.98;;;16.00;99.90;;;;;;5052699;28;20403;-72
2023/08/22 00:34:39;;;;;;;21.83;9.02;;;16.00;99.90;;;;;;5051668;28;20469;-72
2023/08/22 00:37:06;;;;;;;13.60;8.77;;;16.00;99.90;;;;;;5051835;28;20037;-72
2023/08/22 00:39:32;;;;;;;12.77;8.95;;;16.00;99.90;;;;;;5051863;28;20049;-72
2023/08/22 00:41:58;;;;;;;17.33;9.70;;;16.00;99.90;;;;;;5052796;28;20083;-72
2023/08/22 00:44:23;;;;;;;14.63;9.50;;;16.00;99.90;;;;;;5054408;28;20106;-72
2023/08/22 00:46:50;;;;;;;14.70;9.65;;;16.00;99.90;;;;;;5055302;28;20444;-72
2023/08/22 00:49:15;;;;;;;18.23;10.70;;;16.00;99.90;;;;;;5056581;28;20059;-72
2023/08/22 00:51:41;;;;;;;17.92;12.25;;;16.00;99.90;;;;;;5055063;28;20045;-72
2023/08/22 00:54:07;;;;;;;18.65;12.00;;;16.00;99.90;;;;;;5055022;28;20049;-72
2023/08/22 00:56:34;;;;;;;16.45;11.90;;;16.00;99.90;;;;;;5055072;28;20044;-72
2023/08/22 00:59:02;;;;;;;13.93;9.77;;;16.00;99.90;;;;;;5044633;28;20056;-72
2023/08/22 01:01:28;;;;;;;20.75;11.73;;;16.00;99.90;;;;;;5035323;28;20073;-72
2023/08/22 01:03:54;;;;;;;15.02;11.32;;;16.00;99.90;;;;;;5035151;28;20158;-72
2023/08/22 01:06:36;;;;;;;17.60;13.10;;;16.00;99.90;;;;;;5034892;28;20056;-72
2023/08/22 01:09:18;;;;;;;20.85;13.00;;;16.00;99.90;;;;;;5034929;28;20056;-72
2023/08/22 01:11:47;;;;;;;17.58;12.35;;;16.00;99.90;;;;;;5035017;28;20060;-72
2023/08/22 01:14:19;;;;;;;23.67;12.45;;;16.00;99.90;;;;;;5034786;28;20496;-72
2023/08/22 01:16:45;;;;;;;19.02;11.82;;;16.00;99.90;;;;;;5036227;28;20049;-72
2023/08/22 01:19:17;;;;;;;16.90;11.50;;;16.00;99.90;;;;;;5034688;28;20374;-72
2023/08/22 01:21:50;;;;;;;20.95;12.02;;;16.00;99.90;;;;;;5034752;28;20042;-72
2023/08/22 01:24:16;;;;;;;17.95;11.52;;;16.10;99.90;;;;;;5034734;28;20073;-72
2023/08/22 01:26:44;;;;;;;19.77;12.50;;;16.00;99.90;;;;;;5034697;28;20053;-72
2023/08/22 01:29:16;;;;;;;19.02;11.38;;;16.00;99.90;;;;;;5035697;28;20497;-72
2023/08/22 01:32:00;;;;;;;20.17;12.07;;;16.10;99.90;;;;;;5034493;28;20132;-72
2023/08/22 01:34:29;;;;;;;19.80;12.48;;;16.00;99.90;;;;;;5034403;28;20049;-72
2023/08/22 01:36:55;;;;;;;14.95;10.32;;;16.10;99.90;;;;;;5034213;28;20409;-72
2023/08/22 01:39:24;;;;;;;18.55;12.00;;;16.10;99.90;;;;;;5034912;28;20046;-72
2023/08/22 01:41:50;;;;;;;19.38;11.70;;;16.10;99.90;;;;;;5034209;28;20045;-72
2023/08/22 01:44:16;;;;;;;21.25;12.75;;;16.10;99.90;;;;;;5035640;28;20041;-72
2023/08/22 01:46:44;;;;;;;16.83;11.20;;;16.10;99.90;;;;;;5034497;28;20048;-72
2023/08/22 01:49:10;;;;;;;18.33;12.30;;;16.10;99.90;;;;;;5035466;28;20076;-72
2023/08/22 01:51:35;;;;;;;17.23;12.43;;;16.10;99.90;;;;;;5034088;28;20069;-72
2023/08/22 01:54:01;;;;;;;19.48;13.68;;;16.10;99.90;;;;;;5033706;28;20050;-72
2023/08/22 01:56:26;;;;;;;19.40;13.30;;;16.10;99.90;;;;;;5033991;28;20045;-72
2023/08/22 01:58:52;;;;;;;19.23;13.00;;;16.10;99.90;;;;;;5033992;28;20041;-72
2023/08/22 02:01:19;;;;;;;18.50;13.15;;;16.10;99.90;;;;;;5034198;28;20049;-72
2023/08/22 02:03:46;;;;;;;16.42;11.50;;;16.10;99.90;;;;;;5033999;28;20447;-72
2023/08/22 02:06:11;;;;;;;21.15;12.95;;;16.10;99.90;;;;;;5034128;28;20085;-72
2023/08/22 02:08:39;;;;;;;17.15;11.75;;;16.10;99.90;;;;;;5034931;28;20076;-72
2023/08/22 02:11:05;;;;;;;20.48;13.30;;;16.00;99.90;;;;;;5033684;28;20052;-72
2023/08/22 02:13:31;;;;;;;19.40;12.38;;;16.00;99.90;;;;;;5033535;28;20382;-72
2023/08/22 02:15:57;;;;;;;17.55;12.63;;;16.10;99.90;;;;;;5033929;28;20049;-73
2023/08/22 02:18:23;;;;;;;19.60;12.25;;;16.00;99.90;;;;;;5034922;28;20079;-72
2023/08/22 02:20:54;;;;;;;16.15;10.95;;;16.00;99.90;;;;;;5033364;28;20053;-72
2023/08/22 02:23:20;;;;;;;15.40;11.40;;;15.90;99.90;;;;;;5033416;28;20049;-72
2023/08/22 02:25:48;;;;;;;19.52;12.52;;;15.90;99.90;;;;;;5034787;28;20048;-72
2023/08/22 02:28:15;;;;;;;20.80;13.25;;;15.90;99.90;;;;;;5034473;28;20060;-72
2023/08/22 02:30:43;;;;;;;23.65;14.40;;;15.90;99.90;;;;;;5033392;28;20061;-72
2023/08/22 02:33:08;;;;;;;18.17;12.95;;;15.90;99.90;;;;;;5033513;28;20042;-72
2023/08/22 02:35:34;;;;;;;15.63;12.77;;;15.90;99.90;;;;;;5033124;28;20414;-72
2023/08/22 02:37:59;;;;;;;23.58;14.20;;;15.90;99.90;;;;;;5035108;28;20045;-72
2023/08/22 02:40:25;;;;;;;18.95;13.63;;;16.00;99.90;;;;;;5034531;28;20037;-72
2023/08/22 02:42:52;;;;;;;17.08;12.77;;;16.00;99.90;;;;;;5033474;28;20053;-72
2023/08/22 02:45:18;;;;;;;16.73;12.23;;;16.00;99.90;;;;;;5033244;28;20392;-72
2023/08/22 02:47:43;;;;;;;22.58;13.48;;;16.00;99.90;;;;;;5033505;28;20465;-73
2023/08/22 02:50:09;;;;;;;19.42;13.55;;;16.00;99.90;;;;;;5034135;28;20119;-72
2023/08/22 02:52:35;;;;;;;18.67;12.68;;;16.10;99.90;;;;;;5033073;28;20137;-73
2023/08/22 02:55:01;;;;;;;19.00;12.73;;;16.10;99.90;;;;;;5032795;28;20123;-72
2023/08/22 02:57:27;;;;;;;18.02;12.13;;;16.10;99.90;;;;;;5032875;28;20469;-72
2023/08/22 02:59:52;;;;;;;17.17;11.55;;;16.10;99.90;;;;;;5033195;28;20056;-73
2023/08/22 03:02:18;;;;;;;16.80;11.70;;;16.00;99.90;;;;;;5033148;28;20123;-72
2023/08/22 03:04:44;;;;;;;20.15;13.50;;;16.00;99.90;;;;;;5033879;28;20057;-72
2023/08/22 03:07:10;;;;;;;19.45;12.75;;;16.10;99.90;;;;;;5032836;28;20045;-72
2023/08/22 03:09:40;;;;;;;20.15;13.52;;;16.10;99.90;;;;;;5032678;28;20056;-72
2023/08/22 03:12:06;;;;;;;19.65;13.13;;;16.20;99.90;;;;;;5032730;28;20584;-72
2023/08/22 03:14:31;;;;;;;18.05;12.43;;;16.20;99.90;;;;;;5032780;28;20073;-72
2023/08/22 03:16:57;;;;;;;24.13;14.18;;;16.10;99.90;;;;;;5032871;28;20381;-72
2023/08/22 03:19:22;;;;;;;18.75;13.25;;;16.20;99.90;;;;;;5032443;28;20125;-72
2023/08/22 03:21:48;;;;;;;19.38;13.35;;;16.20;99.90;;;;;;5032274;28;20124;-72
2023/08/22 03:24:14;;;;;;;19.67;12.68;;;16.20;99.90;;;;;;5033713;28;20034;-72
2023/08/22 03:26:39;;;;;;;15.50;11.13;;;16.20;99.90;;;;;;5032510;28;20088;-72
2023/08/22 03:29:07;;;;;;;20.63;13.38;;;16.20;99.90;;;;;;5032444;28;20083;-72
2023/08/22 03:31:33;;;;;;;19.88;12.80;;;16.20;99.90;;;;;;5032414;28;20053;-72
2023/08/22 03:33:59;;;;;;;19.98;12.40;;;16.20;99.90;;;;;;5032204;28;20042;-72
2023/08/22 03:36:25;;;;;;;17.25;11.55;;;16.20;99.90;;;;;;5032288;28;20053;-72
2023/08/22 03:38:51;;;;;;;20.48;11.20;;;16.20;99.90;;;;;;5032534;28;20049;-72
2023/08/22 03:41:18;;;;;;;14.52;10.75;;;16.10;99.90;;;;;;5032353;28;20053;-72
2023/08/22 03:43:43;;;;;;;15.88;11.52;;;16.20;99.90;;;;;;5032629;28;20042;-72
2023/08/22 03:46:09;;;;;;;16.23;11.30;;;16.20;99.90;;;;;;5033557;28;20131;-72
2023/08/22 03:48:35;;;;;;;17.10;11.45;;;16.20;99.90;;;;;;5032241;28;20041;-72
2023/08/22 03:51:04;;;;;;;16.40;11.10;;;16.20;99.90;;;;;;5031858;28;20417;-72
2023/08/22 03:53:29;;;;;;;16.63;12.80;;;16.10;99.90;;;;;;5032089;28;20088;-72
2023/08/22 03:55:55;;;;;;;20.58;11.80;;;16.10;99.90;;;;;;5032448;28;20096;-72
2023/08/22 03:58:21;;;;;;;18.65;12.20;;;16.10;99.90;;;;;;5033507;28;20482;-72
2023/08/22 04:00:46;;;;;;;17.70;11.45;;;16.10;99.90;;;;;;5032417;28;20504;-72
2023/08/22 04:03:12;;;;;;;18.42;11.40;;;16.10;99.90;;;;;;5032228;28;20449;-72
2023/08/22 04:05:41;;;;;;;17.35;11.85;;;16.00;99.90;;;;;;5032333;28;20137;-72
2023/08/22 04:08:07;;;;;;;17.52;11.38;;;16.00;99.90;;;;;;5033424;28;20041;-72
2023/08/22 04:10:36;;;;;;;14.70;10.98;;;16.00;99.90;;;;;;5032359;28;20385;-72
2023/08/22 04:13:01;;;;;;;15.43;10.55;;;16.00;99.90;;;;;;5032131;28;20049;-72
2023/08/22 04:15:27;;;;;;;19.52;11.40;;;16.00;99.90;;;;;;5031826;28;20107;-72
2023/08/22 04:17:53;;;;;;;14.25;10.30;;;16.00;99.90;;;;;;5031964;28;20041;-72
2023/08/22 04:20:21;;;;;;;14.95;10.65;;;16.10;99.90;;;;;;5035758;28;20045;-72
2023/08/22 04:22:46;;;;;;;20.55;10.90;;;16.00;99.90;;;;;;5035361;28;20090;-72
2023/08/22 04:25:12;;;;;;;15.15;10.77;;;16.00;99.90;;;;;;5034500;28;20045;-72
2023/08/22 04:27:39;;;;;;;18.52;11.43;;;16.00;99.90;;;;;;5035247;28;20041;-72
2023/08/22 04:30:07;;;;;;;16.70;11.00;;;16.10;99.90;;;;;;5035549;28;20061;-72
2023/08/22 04:32:33;;;;;;;15.77;11.13;;;16.10;99.90;;;;;;5035355;28;20053;-71
2023/08/22 04:34:58;;;;;;;17.00;10.90;;;16.10;99.90;;;;;;5035428;28;20045;-72
2023/08/22 04:37:24;;;;;;;14.15;9.82;;;16.10;99.90;;;;;;5035336;28;20382;-72
2023/08/22 04:39:50;;;;;;;15.45;10.75;;;16.10;99.90;;;;;;5036493;28;20048;-71
2023/08/22 04:42:15;;;;;;;15.02;10.93;;;16.20;99.90;;;;;;5035453;28;20049;-72
2023/08/22 04:44:41;;;;;;;14.50;11.05;;;16.20;99.90;;;;;;5035486;28;20053;-71
2023/08/22 04:47:07;;;;;;;17.50;11.32;;;16.20;99.90;;;;;;5036372;28;20385;-71
2023/08/22 04:49:32;;;;;;;17.35;11.27;;;16.20;99.90;;;;;;5036332;28;20053;-72
2023/08/22 04:51:58;;;;;;;13.93;9.90;;;16.30;99.90;;;;;;5035457;28;20076;-71
2023/08/22 04:54:24;;;;;;;17.63;11.23;;;16.20;99.90;;;;;;5036201;28;20428;-72
2023/08/22 04:56:53;;;;;;;14.93;9.60;;;16.20;99.90;;;;;;5034976;28;20512;-72
2023/08/22 04:59:18;;;;;;;17.85;11.43;;;16.20;99.90;;;;;;5035185;28;20045;-71
2023/08/22 05:01:44;;;;;;;20.77;11.05;;;16.20;99.90;;;;;;5036382;28;20049;-71
2023/08/22 05:04:09;;;;;;;15.65;10.82;;;16.20;99.90;;;;;;5034943;28;20057;-71
2023/08/22 05:06:35;;;;;;;13.95;10.82;;;16.20;99.90;;;;;;5034732;28;20046;-71
2023/08/22 05:09:01;;;;;;;14.73;10.80;;;16.30;99.90;;;;;;5035115;28;20061;-71
2023/08/22 05:11:26;;;;;;;15.77;10.50;;;16.30;99.90;;;;;;5034567;28;20046;-72
2023/08/22 05:13:52;;;;;;;15.25;9.88;;;16.30;99.90;;;;;;5034881;28;20128;-72
2023/08/22 05:16:17;;;;;;;16.67;10.65;;;16.30;99.90;;;;;;5034548;28;20052;-71
2023/08/22 05:18:43;;;;;;;18.67;10.73;;;16.40;99.90;;;;;;5034827;28;20045;-71
2023/08/22 05:21:09;;;;;;;15.15;11.27;;;16.30;99.90;;;;;;5035771;28;20052;-71
2023/08/22 05:23:35;;;;;;;17.05;11.65;;;16.40;99.90;;;;;;5036043;28;20496;-72
2023/08/22 05:26:01;;;;;;;17.55;11.40;;;16.40;99.90;;;;;;5034364;28;20056;-71
2023/08/22 05:28:27;;;;;;;15.52;11.45;;;16.50;99.90;;;;;;5034258;28;20054;-71
2023/08/22 05:30:52;;;;;;;19.02;11.27;;;16.50;99.90;;;;;;5034261;28;20052;-72
2023/08/22 05:33:18;;;;;;;17.30;11.02;;;16.50;99.90;;;;;;5035659;28;20489;-71
2023/08/22 05:35:43;;;;;;;14.13;10.73;;;16.60;99.90;;;;;;5034181;28;20503;-72
2023/08/22 05:38:12;;;;;;;15.38;11.40;;;16.70;99.90;;;;;;5034596;28;20087;-72
2023/08/22 05:40:37;;;;;;;15.90;10.57;;;16.60;99.90;;;;;;5034363;28;20107;-71
2023/08/22 05:43:03;;;;;;;14.75;10.07;;;16.70;99.90;;;;;;5034377;28;20424;-72
2023/08/22 05:45:29;;;;;;;16.73;10.60;;;16.70;99.90;;;;;;5034372;28;20124;-72
2023/08/22 05:47:54;;;;;;;13.68;10.30;;;16.80;99.90;;;;;;5034067;28;20050;-72
2023/08/22 05:50:20;;;;;;;13.70;10.02;;;16.80;99.90;;;;;;5035448;28;20095;-71
2023/08/22 05:52:45;;;;;;;15.55;10.82;;;16.90;99.90;;;;;;5035405;28;20037;-71
2023/08/22 05:55:11;;;;;;;14.45;10.23;;;16.90;99.90;;;;;;5033917;28;20049;-71
2023/08/22 05:57:37;;;;;;;14.77;10.35;;;16.90;99.90;;;;;;5035400;28;20125;-72
2023/08/22 06:00:08;;;;;;;16.83;10.02;;;17.00;99.90;;;;;;5035288;28;20069;-71
2023/08/22 06:02:34;;;;;;;17.35;10.60;;;17.00;99.90;;;;;;5035227;28;20120;-72
2023/08/22 06:05:00;;;;;;;17.25;9.95;;;17.10;99.90;;;;;;5035214;28;20053;-72
2023/08/22 06:07:26;;;;;;;14.57;9.88;;;17.20;99.90;;;;;;5033686;28;20045;-72
2023/08/22 06:09:51;;;;;;;11.48;8.85;;;17.20;99.90;;;;;;5033583;28;20048;-72
2023/08/22 06:12:17;;;;;;;14.45;10.05;;;17.30;99.90;;;;;;5033733;28;20102;-72
2023/08/22 06:14:43;;;;;;;11.77;8.52;;;17.40;99.90;;;;;;5034685;28;20045;-72
2023/08/22 06:17:09;;;;;;;14.80;9.82;;;17.50;99.90;;;;;;5033695;28;20145;-72
2023/08/22 06:19:35;;;;;;;11.93;8.95;;;17.50;99.90;;;;;;5033683;28;20405;-72
2023/08/22 06:22:00;;;;;;;15.07;9.52;;;17.60;99.90;;;;;;5033369;28;20048;-72
2023/08/22 06:24:26;;;;;;;17.10;9.98;;;17.80;99.90;;;;;;5034488;28;20042;-72
2023/08/22 06:26:51;;;;;;;13.65;8.75;;;17.90;99.90;;;;;;5026613;28;20056;-70
2023/08/22 06:29:18;;;;;;;13.98;9.15;;;18.00;99.90;;;;;;5017935;28;20054;-71
2023/08/22 06:31:43;;;;;;;11.57;8.77;;;18.00;99.90;;;;;;5042024;28;20442;-72
2023/08/22 06:34:12;;;;;;;12.77;8.93;;;18.20;99.90;;;;;;5050324;28;20041;-71
2023/08/22 06:36:38;;;;;;;13.60;9.63;;;18.20;99.90;;;;;;5045203;28;20048;-72
2023/08/22 06:39:06;;;;;;;12.88;10.00;;;18.30;99.90;;;;;;5043696;28;20052;-72
2023/08/22 06:41:32;;;;;;;15.13;8.55;;;18.30;99.90;;;;;;5045379;28;20048;-73
2023/08/22 06:44:00;;;;;;;12.23;8.73;;;18.30;99.90;;;;;;5041694;28;20041;-73
2023/08/22 06:46:27;;;;;;;12.32;8.10;;;18.30;99.90;;;;;;5041762;28;20054;-73
2023/08/22 06:48:52;;;;;;;15.32;8.77;;;18.30;99.90;;;;;;5040919;28;20045;-72
2023/08/22 06:51:18;;;;;;;15.05;8.70;;;18.20;99.90;;;;;;5038820;28;20456;-72
2023/08/22 06:53:44;;;;;;;15.23;9.18;;;18.20;99.90;;;;;;5038929;28;20037;-72
2023/08/22 06:56:10;;;;;;;13.65;9.07;;;18.20;99.90;;;;;;5035307;28;20087;-73
2023/08/22 06:58:36;;;;;;;15.68;8.82;;;18.30;99.90;;;;;;5041441;28;20095;-72
2023/08/22 07:01:05;;;;;;;12.23;8.63;;;18.30;99.90;;;;;;5036587;28;20045;-72
2023/08/22 07:03:31;;;;;;;11.20;8.23;;;18.40;99.90;;;;;;5033792;28;20041;-72
2023/08/22 07:05:57;;;;;;;9.82;8.15;;;18.50;99.90;;;;;;5041375;28;20045;-72
2023/08/22 07:08:22;;;;;;;9.60;6.95;;;18.60;99.90;;;;;;5032673;28;20128;-72
2023/08/22 07:10:48;;;;;;;11.90;7.30;;;18.90;99.90;;;;;;5029480;28;20057;-70
2023/08/22 07:13:15;;;;;;;11.70;7.10;;;19.00;99.90;;;;;;5018568;28;20405;-70
2023/08/22 07:15:41;;;;;;;13.30;7.60;;;19.10;99.90;;;;;;5029021;28;20062;-70
2023/08/22 07:18:06;;;;;;;7.78;6.28;;;19.20;99.90;;;;;;5012770;28;20048;-70
2023/08/22 07:20:32;;;;;;;9.35;6.43;;;19.30;99.90;;;;;;5012817;28;20054;-70
2023/08/22 07:22:57;;;;;;;9.02;5.80;;;19.40;99.90;;;;;;5013675;28;20509;-71
2023/08/22 07:25:23;;;;;;;9.77;6.07;;;19.40;99.90;;;;;;5012661;28;20050;-72
2023/08/22 07:27:49;;;;;;;10.23;5.55;;;19.50;99.90;;;;;;5012189;28;20104;-72
2023/08/22 07:30:15;;;;;;;8.43;6.00;;;19.70;99.90;;;;;;5018944;28;20065;-71
2023/08/22 07:32:40;;;;;;;8.85;4.65;;;19.80;99.90;;;;;;5051891;28;20094;-72
2023/08/22 07:35:06;;;;;;;10.55;4.95;;;20.00;99.90;;;;;;5053318;28;20087;-71
2023/08/22 07:37:32;;;;;;;6.75;4.32;;;20.10;99.90;;;;;;5052065;28;20378;-72
2023/08/22 07:39:58;;;;;;;9.02;4.20;;;20.20;99.90;;;;;;5053090;28;20037;-71
2023/08/22 07:42:24;;;;;;;7.28;3.47;;;20.40;99.90;;;;;;5051762;28;20432;-71
2023/08/22 07:44:49;;;;;;;6.35;3.38;;;20.50;99.90;;;;;;5051875;28;20045;-71
2023/08/22 07:47:15;;;;;;;8.27;3.00;;;20.60;99.90;;;;;;5051980;28;20040;-70
2023/08/22 07:49:41;;;;;;;7.85;3.42;;;20.70;99.90;;;;;;5051786;28;20163;-73
2023/08/22 07:52:08;;;;;;;6.30;3.47;;;20.80;99.90;;;;;;5053723;28;20041;-74
2023/08/22 07:54:33;;;;;;;9.40;3.00;;;20.90;99.90;;;;;;5056415;28;20095;-72
2023/08/22 07:57:00;;;;;;;8.02;3.40;;;21.00;99.90;;;;;;5043519;28;20407;-72
2023/08/22 07:59:25;;;;;;;6.85;3.42;;;21.00;99.90;;;;;;5045818;28;20106;-72
2023/08/22 08:01:52;;;;;;;6.72;3.30;;;21.10;99.90;;;;;;5052357;28;20507;-71
2023/08/22 08:04:18;;;;;;;6.18;2.90;;;21.20;99.90;;;;;;5052724;28;20084;-71
2023/08/22 08:06:46;;;;;;;8.07;2.90;;;21.20;99.90;;;;;;5055914;28;20080;-71
2023/08/22 08:09:14;;;;;;;5.65;2.67;;;21.20;99.90;;;;;;5047923;28;20485;-72
2023/08/22 08:11:39;;;;;;;6.85;3.33;;;21.30;99.90;;;;;;5044519;28;20409;-72
2023/08/22 08:14:06;;;;;;;8.80;3.33;;;21.40;99.90;;;;;;5044546;28;20470;-72
2023/08/22 08:16:32;;;;;;;7.82;3.28;;;21.50;99.90;;;;;;5035579;28;20053;-73
2023/08/22 08:18:58;;;;;;;9.02;3.80;;;21.50;99.90;;;;;;5043314;28;20120;-73
2023/08/22 08:21:24;;;;;;;6.63;3.72;;;21.60;99.90;;;;;;5055622;28;20188;-73
2023/08/22 08:23:50;;;;;;;8.95;4.50;;;21.70;99.90;;;;;;5048784;28;20076;-72
2023/08/22 08:26:16;;;;;;;7.95;4.65;;;21.70;99.90;;;;;;5039057;28;20370;-72
2023/08/22 08:28:42;;;;;;;9.05;5.25;;;21.70;99.90;;;;;;5046191;28;20056;-72
2023/08/22 08:31:08;;;;;;;8.85;4.75;;;21.80;99.90;;;;;;5043849;28;20580;-72
2023/08/22 08:33:33;;;;;;;7.78;4.97;;;21.90;99.90;;;;;;5047480;28;20092;-72
2023/08/22 08:35:59;;;;;;;9.18;5.05;;;21.90;99.90;;;;;;5037547;28;20073;-72
2023/08/22 08:38:25;;;;;;;10.23;6.00;;;21.90;99.90;;;;;;5051644;28;20049;-72
2023/08/22 08:40:54;;;;;;;9.90;5.55;;;21.90;99.90;;;;;;5044299;28;20405;-72
2023/08/22 08:43:22;;;;;;;11.30;6.18;;;21.70;99.90;;;;;;5046239;28;20057;-72
2023/08/22 08:45:48;;;;;;;9.77;5.63;;;21.80;99.90;;;;;;5044670;28;20088;-72
2023/08/22 08:48:17;;;;;;;8.25;5.68;;;22.00;99.90;;;;;;5042625;28;20476;-72
2023/08/22 08:50:46;;;;;;;10.07;5.97;;;22.10;99.90;;;;;;5040127;28;20473;-72
2023/08/22 08:53:12;;;;;;;10.50;6.45;;;22.10;99.90;;;;;;5040480;28;20068;-72
2023/08/22 08:55:40;;;;;;;10.77;5.95;;;22.20;99.90;;;;;;5048477;28;20057;-72
2023/08/22 08:58:07;;;;;;;11.05;5.25;;;22.30;99.90;;;;;;5043756;28;20087;-73
2023/08/22 09:00:33;;;;;;;10.98;5.15;;;22.40;99.90;;;;;;5043397;28;20041;-72
2023/08/22 09:02:59;;;;;;;7.90;4.88;;;22.40;99.90;;;;;;5054700;28;20455;-72
2023/08/22 09:05:26;;;;;;;9.10;5.30;;;22.50;99.90;;;;;;5048503;28;20053;-72
2023/08/22 09:07:52;;;;;;;8.00;4.75;;;22.40;99.90;;;;;;5044854;28;20095;-72
2023/08/22 09:10:34;;;;;;;10.40;5.20;;;22.50;99.90;;;;;;5034536;28;20045;-72
2023/08/22 09:13:03;;;;;;;8.73;4.97;;;22.60;99.90;;;;;;5045756;28;20098;-72
2023/08/22 09:15:30;;;;;;;10.15;5.50;;;22.70;99.90;;;;;;5031141;28;20457;-72
2023/08/22 09:17:57;;;;;;;15.95;6.30;;;22.70;99.90;;;;;;5042528;28;20145;-72
2023/08/22 09:20:23;;;;;;;10.50;6.28;;;22.80;99.90;;;;;;5036953;28;20212;-72
2023/08/22 09:22:48;;;;;;;10.57;5.78;;;22.80;99.90;;;;;;5041815;28;20076;-72
2023/08/22 09:25:15;;;;;;;8.93;6.38;;;22.80;99.90;;;;;;5054452;28;20049;-71
2023/08/22 09:27:48;;;;;;;10.55;7.50;;;22.80;99.90;;;;;;5055100;28;20408;-71
2023/08/22 09:30:20;;;;;;;10.70;7.25;;;22.80;99.90;;;;;;5055588;28;20068;-70
2023/08/22 09:32:58;;;;;;;10.68;6.95;;;22.80;99.90;;;;;;5041513;28;20061;-70
2023/08/22 09:35:29;;;;;;;10.50;6.90;;;22.80;99.90;;;;;;5033983;28;20084;-71
2023/08/22 09:37:55;;;;;;;9.73;6.13;;;22.90;99.90;;;;;;5034393;28;20053;-71
2023/08/22 09:40:23;;;;;;;12.57;6.85;;;23.00;99.90;;;;;;5034099;28;20042;-71
2023/08/22 09:42:52;;;;;;;11.70;7.20;;;23.00;99.90;;;;;;5035507;28;20128;-71
2023/08/22 09:45:19;;;;;;;10.20;6.05;;;22.90;99.90;;;;;;5035480;28;20046;-71
2023/08/22 09:47:50;;;;;;;12.55;6.75;;;23.00;99.90;;;;;;5034106;28;20075;-70
2023/08/22 09:50:18;;;;;;;11.20;7.13;;;23.00;99.90;;;;;;5033909;28;20080;-73
2023/08/22 09:52:44;;;;;;;10.20;6.72;;;23.10;99.90;;;;;;5032654;28;20489;-72
2023/08/22 09:55:10;;;;;;;8.45;6.53;;;23.10;99.90;;;;;;5032932;28;20083;-72
2023/08/22 09:57:38;;;;;;;11.02;6.63;;;23.20;99.90;;;;;;5031387;28;20504;-71
2023/08/22 10:00:05;;;;;;;10.40;8.38;;;23.20;99.90;;;;;;5044368;28;20484;-72
2023/08/22 10:02:35;;;;;;;12.85;7.45;;;23.20;99.90;;;;;;5048953;28;20048;-71
2023/08/22 10:05:02;;;;;;;10.00;6.03;;;23.30;99.90;;;;;;5032889;28;20049;-72
2023/08/22 10:07:28;;;;;;;11.23;6.60;;;23.30;99.90;;;;;;5048699;28;20305;-70
2023/08/22 10:09:54;;;;;;;11.00;7.90;;;23.40;99.90;;;;;;5032189;28;20397;-70
2023/08/22 10:12:21;;;;;;;9.20;6.88;;;23.40;99.90;;;;;;5029467;28;20095;-73
2023/08/22 10:14:50;;;;;;;11.50;7.78;;;23.50;99.90;;;;;;5028955;28;20058;-73
2023/08/22 10:17:16;;;;;;;10.32;6.43;;;23.60;99.90;;;;;;5028773;28;20456;-73
2023/08/22 10:19:47;;;;;;;9.65;7.22;;;23.70;99.90;;;;;;5042885;28;20498;-73
2023/08/22 10:22:14;;;;;;;11.27;7.10;;;23.70;99.90;;;;;;5049451;28;20041;-74
2023/08/22 10:24:41;;;;;;;9.80;6.80;;;23.80;99.90;;;;;;5034964;28;20065;-73
2023/08/22 10:27:12;;;;;;;12.65;8.43;;;24.00;99.90;;;;;;5028659;28;20041;-73
2023/08/22 10:29:45;;;;;;;9.85;7.60;;;24.00;99.90;;;;;;5028628;28;20456;-73
2023/08/22 10:32:10;;;;;;;10.38;6.85;;;24.00;99.90;;;;;;5029012;28;20063;-74
2023/08/22 10:34:39;;;;;;;10.85;7.68;;;24.20;99.90;;;;;;5028445;28;20041;-74
2023/08/22 10:37:15;;;;;;;10.45;7.10;;;24.20;99.90;;;;;;5028446;28;20056;-74
2023/08/22 10:39:45;;;;;;;12.40;8.02;;;24.30;99.90;;;;;;5028271;28;20041;-73
2023/08/22 10:42:22;;;;;;;11.25;7.00;;;24.40;99.90;;;;;;5028723;28;20393;-73
2023/08/22 10:44:56;;;;;;;11.15;6.75;;;24.40;99.90;;;;;;5029994;28;20084;-74
2023/08/22 10:47:32;;;;;;;7.35;5.63;;;24.60;99.90;;;;;;5029056;28;20053;-73
2023/08/22 10:50:00;;;;;;;14.05;6.15;;;24.40;99.90;;;;;;5045886;28;20037;-73
2023/08/22 10:52:37;;;;;;;10.43;5.38;;;24.40;99.90;;;;;;5041488;28;20049;-73
2023/08/22 10:55:11;;;;;;;7.68;4.45;;;24.50;99.90;;;;;;5028174;28;20187;-74
2023/08/22 10:57:38;;;;;;;8.82;3.90;;;24.40;99.90;;;;;;5028183;28;20106;-74
2023/08/22 11:00:20;;;;;;;10.23;3.90;;;24.60;99.90;;;;;;5028157;28;20053;-72
2023/08/22 11:02:49;;;;;;;5.30;2.93;;;24.90;99.90;;;;;;5028112;28;20148;-73
2023/08/22 11:05:15;;;;;;;7.68;3.58;;;25.00;99.90;;;;;;5027986;28;20779;-73
2023/08/22 11:07:51;;;;;;;8.23;3.10;;;25.00;99.90;;;;;;5029729;28;20068;-74
2023/08/22 11:10:25;;;;;;;6.93;4.05;;;24.70;99.90;;;;;;5023262;28;20594;-72
2023/08/22 11:12:54;;;;;;;11.50;4.53;;;24.60;99.90;;;;;;5035531;28;20033;-72
2023/08/22 11:15:20;;;;;;;5.97;3.10;;;24.50;99.90;;;;;;5033154;28;20103;-72
2023/08/22 11:17:46;;;;;;;7.45;3.97;;;24.40;99.90;;;;;;5039979;28;20049;-73
2023/08/22 11:20:14;;;;;;;8.30;3.70;;;24.60;99.90;;;;;;5028375;28;20056;-73
2023/08/22 11:22:42;;;;;;;6.38;2.58;;;24.60;99.90;;;;;;5027793;28;20041;-73
2023/08/22 11:25:25;;;;;;;6.28;3.10;;;24.80;99.90;;;;;;5028971;28;20583;-73
2023/08/22 11:27:53;;;;;;;8.10;2.40;;;24.90;99.90;;;;;;5026674;28;20045;-73
2023/08/22 11:30:20;;;;;;;5.85;2.00;;;24.90;99.90;;;;;;5028135;28;20089;-72
2023/08/22 11:32:46;;;;;;;7.25;2.63;;;24.80;99.90;;;;;;5028933;28;20042;-71
2023/08/22 11:35:11;;;;;;;6.47;2.83;;;25.00;99.90;;;;;;5033563;28;20052;-73
2023/08/22 11:37:40;;;;;;;6.47;3.03;;;25.10;99.90;;;;;;5042395;28;20076;-76
2023/08/22 11:40:10;;;;;;;7.63;3.25;;;25.20;99.90;;;;;;5033738;28;20037;-73
2023/08/22 11:42:37;;;;;;;5.53;2.85;;;25.40;99.90;;;;;;5036119;28;20041;-72
2023/08/22 11:45:08;;;;;;;7.05;3.17;;;25.40;99.90;;;;;;5041104;28;20045;-74
2023/08/22 11:47:42;;;;;;;7.40;3.25;;;25.40;99.90;;;;;;5028260;28;20054;-73
2023/08/22 11:50:15;;;;;;;6.70;3.22;;;25.30;99.90;;;;;;5027871;28;20053;-73
2023/08/22 11:52:42;;;;;;;6.65;3.22;;;25.30;99.90;;;;;;5029470;28;20044;-73
2023/08/22 11:55:10;;;;;;;7.93;2.83;;;25.00;99.90;;;;;;5028279;28;20048;-72
2023/08/22 11:57:37;;;;;;;9.40;3.25;;;24.60;99.90;;;;;;5027730;28;20069;-71
2023/08/22 12:00:10;;;;;;;6.68;2.85;;;24.50;99.90;;;;;;5028757;28;20456;-73
2023/08/22 12:02:36;;;;;;;9.70;3.00;;;24.30;99.90;;;;;;5031279;28;20049;-73
2023/08/22 12:05:03;;;;;;;8.05;3.20;;;24.30;99.90;;;;;;5030683;28;20049;-73
2023/08/22 12:07:29;;;;;;;7.22;2.83;;;24.30;99.90;;;;;;5050924;28;20120;-73
2023/08/22 12:10:03;;;;;;;10.55;2.90;;;24.20;99.90;;;;;;5038584;28;20126;-73
2023/08/22 12:12:30;;;;;;;6.78;3.03;;;24.20;99.90;;;;;;5031440;28;20045;-74
2023/08/22 12:14:56;;;;;;;9.85;3.75;;;24.20;99.90;;;;;;5017972;28;20046;-72
2023/08/22 12:17:22;;;;;;;10.00;3.50;;;23.80;99.90;;;;;;5016461;28;20105;-76
2023/08/22 12:19:54;;;;;;;8.95;3.15;;;24.00;99.90;;;;;;5031825;28;20069;-73
2023/08/22 12:22:19;;;;;;;11.90;3.33;;;24.10;99.90;;;;;;5031631;28;20485;-73
2023/08/22 12:24:45;;;;;;;6.68;2.80;;;24.20;99.90;;;;;;5031482;28;20048;-73
2023/08/22 12:27:14;;;;;;;11.00;3.30;;;24.20;99.90;;;;;;5032726;28;20053;-74
2023/08/22 12:29:41;;;;;;;9.93;3.90;;;23.80;99.90;;;;;;5031378;28;20493;-74
2023/08/22 12:32:07;;;;;;;9.50;3.35;;;23.60;99.90;;;;;;5031346;28;20440;-73
2023/08/22 12:34:33;;;;;;;8.88;3.47;;;23.40;99.90;;;;;;5031477;28;20500;-73